Time;durP1;ratioP1;P1;durP2;ratioP2;P2;SDS_P1;SDS_P2;PMS_P1;PMS_P2;Temp;Humidity;BMP_temperature;BMP_pressure;BME280_temperature;BME280_humidity;BME280_pressure;Samples;Min_cycle;Max_cycle;Signal;HPM_P1;HPM_P2
2023/06/10 00:01:22;;;;;;;13.25;8.23;;;;;;;;;;5059909;28;20111;-78
2023/06/10 00:03:50;;;;;;;10.30;7.97;;;;;;;;;;5063758;28;20056;-78
2023/06/10 00:06:15;;;;;;;11.05;8.38;;;;;;;;;;5059906;28;20044;-77
2023/06/10 00:08:40;;;;;;;11.57;7.50;;;;;;;;;;5055598;28;20395;-77
2023/06/10 00:11:05;;;;;;;10.65;7.63;;;;;;;;;;5055541;28;20044;-77
2023/06/10 00:13:31;;;;;;;11.23;7.27;;;;;;;;;;5063331;28;20072;-77
2023/06/10 00:15:56;;;;;;;10.27;7.60;;;;;;;;;;5057834;28;20262;-77
2023/06/10 00:18:22;;;;;;;8.13;6.80;;;;;;;;;;5057537;28;20297;-78
2023/06/10 00:20:48;;;;;;;8.82;6.82;;;;;;;;;;5061567;28;20261;-78
2023/06/10 00:23:14;;;;;;;8.30;6.50;;;;;;;;;;5056467;28;20029;-77
2023/06/10 00:25:40;;;;;;;10.57;7.47;;;;;;;;;;5056156;28;20036;-77
2023/06/10 00:28:05;;;;;;;7.85;6.85;;;;;;;;;;5057012;28;20052;-77
2023/06/10 00:30:30;;;;;;;8.10;7.05;;;;;;;;;;5056915;28;20021;-77
2023/06/10 00:32:55;;;;;;;10.03;7.07;;;;;;;;;;5056556;28;20067;-76
2023/06/10 00:35:21;;;;;;;8.82;6.60;;;;;;;;;;5055971;28;20268;-77
2023/06/10 00:37:46;;;;;;;10.98;6.68;;;;;;;;;;5054248;28;20025;-77
2023/06/10 00:40:12;;;;;;;7.33;6.40;;;;;;;;;;5055656;28;20442;-77
2023/06/10 00:42:37;;;;;;;9.35;6.65;;;;;;;;;;5056243;28;20273;-77
2023/06/10 00:45:03;;;;;;;7.95;6.47;;;;;;;;;;5056215;28;20060;-77
2023/06/10 00:47:28;;;;;;;7.15;5.85;;;;;;;;;;5055994;28;20398;-77
2023/06/10 00:49:54;;;;;;;7.68;5.97;;;;;;;;;;5058184;28;20025;-78
2023/06/10 00:52:22;;;;;;;9.15;5.82;;;;;;;;;;5057233;28;20063;-77
2023/06/10 00:54:47;;;;;;;10.60;6.18;;;;;;;;;;5054786;28;20036;-76
2023/06/10 00:57:13;;;;;;;9.20;6.10;;;;;;;;;;5058298;28;20096;-78
2023/06/10 00:59:40;;;;;;;8.48;5.70;;;;;;;;;;5064742;28;20029;-78
2023/06/10 01:02:07;;;;;;;9.25;6.43;;;;;;;;;;5063512;28;20029;-78
2023/06/10 01:04:32;;;;;;;9.85;6.70;;;;;;;;;;5062263;28;20034;-78
2023/06/10 01:07:14;;;;;;;8.23;6.60;;;;;;;;;;5066371;28;20021;-78
2023/06/10 01:09:49;;;;;;;8.88;6.30;;;;;;;;;;5068184;28;20540;-78
2023/06/10 01:12:33;;;;;;;10.55;6.63;;;;;;;;;;5062525;28;20017;-76
2023/06/10 01:15:00;;;;;;;10.27;7.00;;;;;;;;;;5057473;28;20037;-77
2023/06/10 01:17:26;;;;;;;7.97;6.88;;;;;;;;;;5057675;28;20021;-77
2023/06/10 01:19:56;;;;;;;10.90;6.78;;;;;;;;;;5061186;28;20025;-78
2023/06/10 01:22:28;;;;;;;9.18;7.15;;;;;;;;;;5060605;28;20052;-77
2023/06/10 01:24:53;;;;;;;8.38;6.85;;;;;;;;;;5059630;28;20082;-78
2023/06/10 01:27:22;;;;;;;9.75;7.25;;;;;;;;;;5065176;28;20047;-77
2023/06/10 01:29:54;;;;;;;8.32;7.00;;;;;;;;;;5066983;28;20100;-78
2023/06/10 01:32:32;;;;;;;10.20;6.50;;;;;;;;;;5061287;28;20135;-77
2023/06/10 01:34:59;;;;;;;9.32;6.88;;;;;;;;;;5061328;28;20443;-76
2023/06/10 01:37:26;;;;;;;9.10;6.85;;;;;;;;;;5060444;28;20061;-77
2023/06/10 01:39:53;;;;;;;11.32;7.30;;;;;;;;;;5060450;28;20204;-78
2023/06/10 01:42:18;;;;;;;13.98;7.22;;;;;;;;;;5068685;28;20024;-78
2023/06/10 01:44:43;;;;;;;8.77;7.15;;;;;;;;;;5068559;28;20040;-78
2023/06/10 01:47:09;;;;;;;10.70;7.27;;;;;;;;;;5068712;28;20369;-78
2023/06/10 01:49:34;;;;;;;9.25;6.85;;;;;;;;;;5069371;28;20312;-78
2023/06/10 01:51:59;;;;;;;8.82;7.00;;;;;;;;;;5068630;28;20037;-78
2023/06/10 01:54:25;;;;;;;8.63;7.28;;;;;;;;;;5063108;28;20032;-76
2023/06/10 01:56:50;;;;;;;10.17;7.47;;;;;;;;;;5061917;28;20044;-77
2023/06/10 01:59:15;;;;;;;8.03;6.77;;;;;;;;;;5064171;28;20261;-77
2023/06/10 02:01:41;;;;;;;13.35;7.55;;;;;;;;;;5061394;28;20262;-77
2023/06/10 02:04:06;;;;;;;8.85;7.30;;;;;;;;;;5065404;28;20029;-79
2023/06/10 02:06:31;;;;;;;10.47;7.30;;;;;;;;;;5066802;28;20510;-78
2023/06/10 02:08:56;;;;;;;9.05;6.78;;;;;;;;;;5067617;28;20680;-78
2023/06/10 02:11:22;;;;;;;8.15;7.05;;;;;;;;;;5067534;28;20088;-79
2023/06/10 02:13:47;;;;;;;8.77;6.90;;;;;;;;;;5067929;28;20522;-79
2023/06/10 02:16:12;;;;;;;11.13;6.93;;;;;;;;;;5067933;28;20262;-78
2023/06/10 02:18:40;;;;;;;10.25;7.00;;;;;;;;;;5061229;28;20645;-76
2023/06/10 02:21:06;;;;;;;11.63;7.15;;;;;;;;;;5061286;28;20025;-77
2023/06/10 02:23:31;;;;;;;8.18;7.07;;;;;;;;;;5065766;28;20017;-78
2023/06/10 02:25:57;;;;;;;8.70;7.10;;;;;;;;;;5062342;28;20507;-77
2023/06/10 02:28:22;;;;;;;8.50;7.23;;;;;;;;;;5062828;28;20257;-78
2023/06/10 02:30:47;;;;;;;11.20;7.63;;;;;;;;;;5066869;28;20274;-78
2023/06/10 02:33:13;;;;;;;11.55;7.43;;;;;;;;;;5065213;28;20253;-78
2023/06/10 02:35:38;;;;;;;11.20;7.40;;;;;;;;;;5067358;28;20496;-78
2023/06/10 02:38:04;;;;;;;10.50;7.57;;;;;;;;;;5068493;28;20017;-78
2023/06/10 02:40:29;;;;;;;12.95;7.15;;;;;;;;;;5067334;28;20032;-78
2023/06/10 02:42:54;;;;;;;10.07;7.28;;;;;;;;;;5067789;28;20025;-77
2023/06/10 02:45:20;;;;;;;8.90;6.85;;;;;;;;;;5066976;28;20021;-78
2023/06/10 02:47:45;;;;;;;8.85;7.68;;;;;;;;;;5065155;28;20090;-77
2023/06/10 02:50:10;;;;;;;10.32;7.32;;;;;;;;;;5065139;28;20025;-78
2023/06/10 02:52:37;;;;;;;11.90;7.50;;;;;;;;;;5060386;28;20025;-77
2023/06/10 02:55:02;;;;;;;9.23;7.50;;;;;;;;;;5063632;28;20051;-78
2023/06/10 02:57:27;;;;;;;11.15;7.60;;;;;;;;;;5066848;28;20029;-77
2023/06/10 02:59:53;;;;;;;8.43;7.53;;;;;;;;;;5066138;28;20092;-77
2023/06/10 03:02:18;;;;;;;8.35;6.90;;;;;;;;;;5060916;28;20261;-77
2023/06/10 03:04:45;;;;;;;11.95;7.60;;;;;;;;;;5061540;28;20033;-78
2023/06/10 03:07:10;;;;;;;10.25;7.28;;;;;;;;;;5061618;28;20052;-77
2023/06/10 03:09:36;;;;;;;10.13;7.25;;;;;;;;;;5061144;28;20503;-78
2023/06/10 03:12:02;;;;;;;11.25;7.40;;;;;;;;;;5061662;28;20029;-77
2023/06/10 03:14:27;;;;;;;12.85;7.57;;;;;;;;;;5061708;28;20485;-77
2023/06/10 03:16:53;;;;;;;8.18;6.45;;;;;;;;;;5061315;28;20036;-77
2023/06/10 03:19:18;;;;;;;9.00;6.60;;;;;;;;;;5061646;28;20025;-77
2023/06/10 03:21:44;;;;;;;8.13;6.53;;;;;;;;;;5063226;28;20075;-77
2023/06/10 03:24:10;;;;;;;8.43;6.72;;;;;;;;;;5063353;28;20499;-76
2023/06/10 03:26:36;;;;;;;9.38;6.22;;;;;;;;;;5061530;28;20052;-77
2023/06/10 03:29:01;;;;;;;11.23;6.53;;;;;;;;;;5061974;28;20040;-79
2023/06/10 03:31:26;;;;;;;8.55;6.50;;;;;;;;;;5065182;28;20476;-78
2023/06/10 03:33:51;;;;;;;8.00;6.07;;;;;;;;;;5066266;28;20025;-78
2023/06/10 03:36:16;;;;;;;9.13;6.60;;;;;;;;;;5065170;28;20262;-78
2023/06/10 03:38:42;;;;;;;8.40;6.43;;;;;;;;;;5066701;28;20335;-78
2023/06/10 03:41:07;;;;;;;10.00;6.47;;;;;;;;;;5066225;28;20258;-78
2023/06/10 03:43:32;;;;;;;10.47;6.37;;;;;;;;;;5065242;28;20285;-77
2023/06/10 03:45:58;;;;;;;9.50;6.38;;;;;;;;;;5062795;28;20258;-78
2023/06/10 03:48:23;;;;;;;9.77;5.90;;;;;;;;;;5061560;28;20029;-77
2023/06/10 03:50:50;;;;;;;7.03;6.30;;;;;;;;;;5062311;28;20029;-77
2023/06/10 03:53:16;;;;;;;10.00;5.93;;;;;;;;;;5061806;28;20268;-77
2023/06/10 03:55:41;;;;;;;9.80;6.00;;;;;;;;;;5061075;28;20049;-77
2023/06/10 03:58:06;;;;;;;6.87;5.97;;;;;;;;;;5061828;28;20518;-77
2023/06/10 04:00:40;;;;;;;7.43;6.57;;;;;;;;;;5059743;28;20254;-77
2023/06/10 04:03:08;;;;;;;12.07;5.90;;;;;;;;;;5064614;28;20278;-78
2023/06/10 04:05:34;;;;;;;7.50;5.82;;;;;;;;;;5066082;28;20044;-78
2023/06/10 04:08:01;;;;;;;9.77;6.00;;;;;;;;;;5065035;28;20033;-77
2023/06/10 04:10:26;;;;;;;10.52;6.00;;;;;;;;;;5061321;28;20025;-77
2023/06/10 04:12:52;;;;;;;9.70;6.00;;;;;;;;;;5062765;28;20032;-77
2023/06/10 04:15:17;;;;;;;9.52;6.22;;;;;;;;;;5058412;28;20479;-77
2023/06/10 04:17:42;;;;;;;14.57;6.15;;;;;;;;;;5059616;28;20031;-77
2023/06/10 04:20:08;;;;;;;10.47;6.10;;;;;;;;;;5060522;28;20028;-78
2023/06/10 04:22:33;;;;;;;7.28;5.97;;;;;;;;;;5065212;28;20340;-78
2023/06/10 04:24:58;;;;;;;8.93;5.90;;;;;;;;;;5065861;28;20029;-77
2023/06/10 04:27:24;;;;;;;8.63;5.90;;;;;;;;;;5065125;28;20277;-78
2023/06/10 04:29:49;;;;;;;6.85;6.15;;;;;;;;;;5064392;28;20249;-78
2023/06/10 04:32:14;;;;;;;9.93;6.22;;;;;;;;;;5064791;28;20036;-78
2023/06/10 04:34:40;;;;;;;7.33;5.83;;;;;;;;;;5064878;28;20021;-77
2023/06/10 04:37:05;;;;;;;9.40;6.20;;;;;;;;;;5065703;28;20277;-77
2023/06/10 04:39:31;;;;;;;9.18;6.28;;;;;;;;;;5065774;28;20407;-78
2023/06/10 04:41:56;;;;;;;7.07;6.28;;;;;;;;;;5067758;28;20021;-77
2023/06/10 04:44:21;;;;;;;7.17;5.80;;;;;;;;;;5066692;28;20029;-78
2023/06/10 04:46:47;;;;;;;8.43;6.43;;;;;;;;;;5064182;28;20262;-78
2023/06/10 04:49:14;;;;;;;8.88;6.20;;;;;;;;;;5063037;28;20044;-78
2023/06/10 04:51:39;;;;;;;7.70;6.00;;;;;;;;;;5068641;28;20117;-79
2023/06/10 04:54:05;;;;;;;7.47;5.75;;;;;;;;;;5068380;28;20028;-79
2023/06/10 04:56:30;;;;;;;8.73;6.20;;;;;;;;;;5069277;28;20061;-78
2023/06/10 04:58:56;;;;;;;7.63;6.13;;;;;;;;;;5066678;28;20526;-78
2023/06/10 05:01:22;;;;;;;7.72;5.90;;;;;;;;;;5068392;28;20261;-78
2023/06/10 05:03:47;;;;;;;9.70;5.93;;;;;;;;;;5069004;28;20396;-79
2023/06/10 05:06:12;;;;;;;7.93;6.20;;;;;;;;;;5068869;28;20270;-78
2023/06/10 05:08:37;;;;;;;12.68;6.53;;;;;;;;;;5068689;28;20403;-79
2023/06/10 05:11:03;;;;;;;7.60;6.30;;;;;;;;;;5065929;28;20032;-77
2023/06/10 05:13:28;;;;;;;11.17;6.80;;;;;;;;;;5060531;28;20258;-77
2023/06/10 05:15:53;;;;;;;11.43;6.17;;;;;;;;;;5062726;28;20300;-77
2023/06/10 05:18:18;;;;;;;9.88;6.28;;;;;;;;;;5062566;28;20277;-77
2023/06/10 05:20:44;;;;;;;9.20;6.63;;;;;;;;;;5066612;28;20051;-77
2023/06/10 05:23:09;;;;;;;7.93;6.32;;;;;;;;;;5065278;28;20032;-77
2023/06/10 05:25:35;;;;;;;11.05;6.38;;;;;;;;;;5063797;28;20085;-77
2023/06/10 05:28:00;;;;;;;11.20;6.60;;;;;;;;;;5065063;28;20021;-78
2023/06/10 05:30:26;;;;;;;10.02;6.25;;;;;;;;;;5063766;28;20025;-77
2023/06/10 05:32:52;;;;;;;8.68;6.43;;;;;;;;;;5064416;28;20442;-78
2023/06/10 05:35:18;;;;;;;10.90;6.50;;;;;;;;;;5062740;28;20111;-77
2023/06/10 05:37:43;;;;;;;9.52;6.20;;;;;;;;;;5066529;28;20040;-78
2023/06/10 05:40:09;;;;;;;6.97;6.18;;;;;;;;;;5067126;28;20404;-78
2023/06/10 05:42:34;;;;;;;9.27;6.60;;;;;;;;;;5067794;28;20108;-78
2023/06/10 05:44:59;;;;;;;10.10;6.70;;;;;;;;;;5068453;28;20033;-79
2023/06/10 05:47:25;;;;;;;8.13;6.70;;;;;;;;;;5066382;28;20257;-78
2023/06/10 05:49:51;;;;;;;8.27;6.35;;;;;;;;;;5067679;28;20321;-78
2023/06/10 05:52:17;;;;;;;11.13;6.93;;;;;;;;;;5064760;28;20021;-78
2023/06/10 05:54:42;;;;;;;7.65;6.65;;;;;;;;;;5062852;28;20042;-77
2023/06/10 05:57:08;;;;;;;8.60;6.23;;;;;;;;;;5063499;28;20033;-78
2023/06/10 05:59:33;;;;;;;9.43;6.75;;;;;;;;;;5064759;28;20273;-78
2023/06/10 06:01:58;;;;;;;10.73;6.73;;;;;;;;;;5067330;28;20033;-79
2023/06/10 06:04:23;;;;;;;13.75;6.32;;;;;;;;;;5064005;28;20262;-78
2023/06/10 06:06:49;;;;;;;9.00;6.07;;;;;;;;;;5064597;28;20029;-78
2023/06/10 06:09:14;;;;;;;7.67;6.27;;;;;;;;;;5065233;28;20269;-77
2023/06/10 06:11:39;;;;;;;6.18;5.22;;;;;;;;;;5064374;28;20294;-78
2023/06/10 06:14:05;;;;;;;9.80;5.00;;;;;;;;;;5065322;28;20031;-78
2023/06/10 06:16:30;;;;;;;6.40;5.17;;;;;;;;;;5065556;28;20084;-78
2023/06/10 06:18:55;;;;;;;10.73;5.30;;;;;;;;;;5066972;28;20285;-77
2023/06/10 06:21:20;;;;;;;7.70;5.23;;;;;;;;;;5063463;28;20262;-77
2023/06/10 06:23:45;;;;;;;6.60;5.30;;;;;;;;;;5062919;28;20261;-78
2023/06/10 06:26:11;;;;;;;5.80;5.00;;;;;;;;;;5061508;28;20261;-79
2023/06/10 06:28:36;;;;;;;7.95;5.43;;;;;;;;;;5064835;28;20277;-78
2023/06/10 06:31:01;;;;;;;6.00;5.40;;;;;;;;;;5065988;28;20503;-78
2023/06/10 06:33:26;;;;;;;8.23;5.43;;;;;;;;;;5067167;28;20268;-78
2023/06/10 06:35:52;;;;;;;8.32;5.22;;;;;;;;;;5066696;28;20036;-79
2023/06/10 06:38:17;;;;;;;19.92;5.82;;;;;;;;;;5067997;28;20021;-79
2023/06/10 06:40:42;;;;;;;6.80;5.22;;;;;;;;;;5067222;28;20029;-78
2023/06/10 06:43:07;;;;;;;7.63;5.57;;;;;;;;;;5067376;28;20103;-78
2023/06/10 06:45:33;;;;;;;7.27;5.37;;;;;;;;;;5066928;28;20633;-78
2023/06/10 06:47:59;;;;;;;7.20;5.80;;;;;;;;;;5066507;28;20281;-79
2023/06/10 06:50:24;;;;;;;10.35;5.30;;;;;;;;;;5064116;28;20450;-78
2023/06/10 06:52:49;;;;;;;7.17;5.23;;;;;;;;;;5063796;28;20029;-77
2023/06/10 06:55:14;;;;;;;9.00;5.10;;;;;;;;;;5062972;28;20269;-77
2023/06/10 06:57:43;;;;;;;6.45;5.20;;;;;;;;;;5062406;28;20270;-78
2023/06/10 07:00:08;;;;;;;7.30;5.20;;;;;;;;;;5063204;28;20119;-77
2023/06/10 07:02:35;;;;;;;8.68;5.47;;;;;;;;;;5061798;28;20021;-77
2023/06/10 07:05:00;;;;;;;7.15;5.93;;;;;;;;;;5063193;28;20526;-77
2023/06/10 07:07:25;;;;;;;7.13;5.28;;;;;;;;;;5062402;28;20048;-78
2023/06/10 07:09:51;;;;;;;8.40;5.05;;;;;;;;;;5063866;28;20016;-78
2023/06/10 07:12:17;;;;;;;7.13;4.80;;;;;;;;;;5066476;28;20021;-77
2023/06/10 07:14:42;;;;;;;5.68;4.93;;;;;;;;;;5066228;28;20629;-78
2023/06/10 07:17:08;;;;;;;6.53;4.65;;;;;;;;;;5065643;28;20025;-78
2023/06/10 07:19:33;;;;;;;5.13;4.50;;;;;;;;;;5066320;28;20084;-77
2023/06/10 07:21:58;;;;;;;5.60;4.93;;;;;;;;;;5061714;28;20021;-78
2023/06/10 07:24:23;;;;;;;8.97;4.90;;;;;;;;;;5062801;28;20349;-77
2023/06/10 07:26:49;;;;;;;6.13;4.50;;;;;;;;;;5060468;28;20301;-78
2023/06/10 07:29:14;;;;;;;6.63;4.70;;;;;;;;;;5062515;28;20266;-78
2023/06/10 07:31:41;;;;;;;8.65;5.03;;;;;;;;;;5063303;28;20037;-79
2023/06/10 07:34:06;;;;;;;8.52;4.60;;;;;;;;;;5061203;28;20088;-78
2023/06/10 07:36:31;;;;;;;7.77;5.50;;;;;;;;;;5062058;28;20044;-77
2023/06/10 07:38:56;;;;;;;6.40;5.10;;;;;;;;;;5062084;28;20273;-77
2023/06/10 07:41:25;;;;;;;7.88;4.72;;;;;;;;;;5060979;28;20497;-78
2023/06/10 07:43:54;;;;;;;6.72;4.90;;;;;;;;;;5063642;28;20039;-77
2023/06/10 07:46:21;;;;;;;6.20;4.93;;;;;;;;;;5062879;28;20025;-76
2023/06/10 07:48:46;;;;;;;6.05;4.90;;;;;;;;;;5062648;28;20376;-77
2023/06/10 07:51:11;;;;;;;5.83;4.13;;;;;;;;;;5064366;28;20021;-78
2023/06/10 07:53:36;;;;;;;5.60;4.57;;;;;;;;;;5064232;28;20269;-79
2023/06/10 07:56:02;;;;;;;6.20;4.35;;;;;;;;;;5065153;28;20398;-79
2023/06/10 07:58:27;;;;;;;8.55;4.70;;;;;;;;;;5064630;28;20430;-78
2023/06/10 08:00:53;;;;;;;6.30;4.33;;;;;;;;;;5064812;28;20031;-79
2023/06/10 08:03:19;;;;;;;5.53;4.90;;;;;;;;;;5064463;28;20270;-79
2023/06/10 08:05:44;;;;;;;8.27;4.83;;;;;;;;;;5065712;28;20047;-78
2023/06/10 08:08:09;;;;;;;5.90;4.90;;;;;;;;;;5067424;28;20332;-79
2023/06/10 08:11:06;;;;;;;7.80;5.18;;;;;;;;;;5066148;28;20265;-79
2023/06/10 08:13:32;;;;;;;7.93;5.18;;;;;;;;;;5066311;28;20116;-79
2023/06/10 08:15:57;;;;;;;6.57;5.30;;;;;;;;;;5071086;28;20028;-79
2023/06/10 08:18:22;;;;;;;7.88;5.50;;;;;;;;;;5070889;28;20281;-79
2023/06/10 08:20:47;;;;;;;7.10;5.27;;;;;;;;;;5070401;28;20024;-78
2023/06/10 08:23:16;;;;;;;7.53;5.65;;;;;;;;;;5069453;28;20258;-79
2023/06/10 08:25:41;;;;;;;7.47;4.90;;;;;;;;;;5070797;28;20032;-79
2023/06/10 08:28:06;;;;;;;7.70;5.53;;;;;;;;;;5070585;28;20052;-78
2023/06/10 08:30:49;;;;;;;8.40;5.20;;;;;;;;;;5070802;28;20025;-79
2023/06/10 08:33:15;;;;;;;5.68;4.60;;;;;;;;;;5070796;28;20257;-78
2023/06/10 08:35:40;;;;;;;7.72;4.90;;;;;;;;;;5064816;28;20023;-77
2023/06/10 08:38:05;;;;;;;6.70;5.07;;;;;;;;;;5065085;28;20120;-77
2023/06/10 08:40:31;;;;;;;6.93;4.85;;;;;;;;;;5063045;28;20056;-78
2023/06/10 08:43:39;;;;;;;6.45;5.10;;;;;;;;;;5065566;28;20029;-78
2023/06/10 08:46:08;;;;;;;8.05;4.60;;;;;;;;;;5062383;28;20514;-77
2023/06/10 08:48:35;;;;;;;6.78;5.18;;;;;;;;;;5065687;28;20021;-77
2023/06/10 08:51:04;;;;;;;5.85;5.10;;;;;;;;;;5064696;28;20024;-78
2023/06/10 08:53:30;;;;;;;9.05;4.95;;;;;;;;;;5065367;28;20021;-77
2023/06/10 08:56:00;;;;;;;7.25;5.40;;;;;;;;;;5065952;28;20021;-79
2023/06/10 08:58:27;;;;;;;6.35;5.18;;;;;;;;;;5068058;28;20120;-79
2023/06/10 09:00:52;;;;;;;12.23;5.28;;;;;;;;;;5069075;28;20028;-78
2023/06/10 09:03:17;;;;;;;13.65;5.07;;;;;;;;;;5068950;28;20128;-78
2023/06/10 09:05:43;;;;;;;7.53;5.05;;;;;;;;;;5068624;28;20083;-78
2023/06/10 09:08:14;;;;;;;8.00;5.50;;;;;;;;;;5067260;28;20017;-78
2023/06/10 09:10:40;;;;;;;7.28;5.05;;;;;;;;;;5064767;28;20040;-78
2023/06/10 09:13:05;;;;;;;6.20;5.07;;;;;;;;;;5068823;28;20021;-78
2023/06/10 09:15:31;;;;;;;6.30;5.03;;;;;;;;;;5067823;28;20475;-77
2023/06/10 09:17:56;;;;;;;7.18;5.18;;;;;;;;;;5063662;28;20300;-78
2023/06/10 09:20:21;;;;;;;8.15;4.72;;;;;;;;;;5063318;28;20419;-79
2023/06/10 09:22:47;;;;;;;8.63;5.10;;;;;;;;;;5064236;28;20057;-78
2023/06/10 09:25:13;;;;;;;6.95;4.57;;;;;;;;;;5063747;28;20479;-77
2023/06/10 09:27:50;;;;;;;6.55;4.70;;;;;;;;;;5065203;28;20017;-78
2023/06/10 09:30:34;;;;;;;9.73;5.10;;;;;;;;;;5064117;28;20020;-77
2023/06/10 09:33:02;;;;;;;6.57;4.43;;;;;;;;;;5065082;28;20068;-78
2023/06/10 09:35:29;;;;;;;7.63;4.53;;;;;;;;;;5062686;28;20103;-78
2023/06/10 09:37:56;;;;;;;6.65;4.60;;;;;;;;;;5063931;28;20032;-77
2023/06/10 09:40:22;;;;;;;7.90;5.22;;;;;;;;;;5062440;28;20064;-77
2023/06/10 09:42:54;;;;;;;5.80;4.53;;;;;;;;;;5063622;28;20024;-77
2023/06/10 09:45:20;;;;;;;5.32;4.45;;;;;;;;;;5065894;28;20032;-78
2023/06/10 09:47:55;;;;;;;7.22;4.32;;;;;;;;;;5068890;28;20025;-79
2023/06/10 09:50:21;;;;;;;5.35;4.40;;;;;;;;;;5063187;28;20025;-77
2023/06/10 09:52:48;;;;;;;7.47;4.72;;;;;;;;;;5063242;28;20043;-77
2023/06/10 09:55:13;;;;;;;5.78;4.60;;;;;;;;;;5064421;28;20128;-77
2023/06/10 09:57:44;;;;;;;7.93;4.38;;;;;;;;;;5061458;28;20041;-77
2023/06/10 10:00:10;;;;;;;6.30;4.47;;;;;;;;;;5060745;28;20514;-77
2023/06/10 10:02:46;;;;;;;10.18;4.53;;;;;;;;;;5062454;28;20028;-78
2023/06/10 10:05:12;;;;;;;6.57;4.25;;;;;;;;;;5062739;28;20053;-78
2023/06/10 10:07:38;;;;;;;5.30;4.20;;;;;;;;;;5062720;28;20032;-78
2023/06/10 10:10:03;;;;;;;5.83;4.27;;;;;;;;;;5064372;28;20107;-78
2023/06/10 10:12:29;;;;;;;6.03;4.30;;;;;;;;;;5068441;28;20257;-77
2023/06/10 10:14:56;;;;;;;6.20;4.30;;;;;;;;;;5068024;28;20075;-77
2023/06/10 10:17:23;;;;;;;8.63;3.95;;;;;;;;;;5063249;28;20475;-77
2023/06/10 10:20:02;;;;;;;6.53;4.20;;;;;;;;;;5061724;28;20025;-78
2023/06/10 10:22:33;;;;;;;5.75;3.33;;;;;;;;;;5068051;28;20049;-78
2023/06/10 10:25:02;;;;;;;6.90;3.60;;;;;;;;;;5067987;28;20084;-78
2023/06/10 10:27:33;;;;;;;5.53;3.15;;;;;;;;;;5069233;28;20037;-78
2023/06/10 10:29:59;;;;;;;6.40;3.90;;;;;;;;;;5069543;28;20051;-78
2023/06/10 10:32:33;;;;;;;7.45;4.00;;;;;;;;;;5069573;28;20024;-78
2023/06/10 10:35:07;;;;;;;5.50;4.25;;;;;;;;;;5069967;28;20032;-77
2023/06/10 10:37:32;;;;;;;10.43;4.55;;;;;;;;;;5067587;28;20542;-78
2023/06/10 10:40:00;;;;;;;6.40;4.28;;;;;;;;;;5071220;28;20040;-78
2023/06/10 10:42:26;;;;;;;5.95;4.18;;;;;;;;;;5068555;28;20079;-78
2023/06/10 10:44:52;;;;;;;8.20;4.25;;;;;;;;;;5067294;28;20403;-78
2023/06/10 10:47:20;;;;;;;4.60;3.72;;;;;;;;;;5068014;28;20118;-79
2023/06/10 10:49:50;;;;;;;7.43;3.97;;;;;;;;;;5066467;28;20083;-78
2023/06/10 10:52:15;;;;;;;6.53;3.78;;;;;;;;;;5068406;28;20124;-78
2023/06/10 10:54:44;;;;;;;5.83;3.87;;;;;;;;;;5065393;28;20025;-77
2023/06/10 10:57:18;;;;;;;8.23;3.97;;;;;;;;;;5060359;28;20269;-78
2023/06/10 10:59:49;;;;;;;6.45;3.70;;;;;;;;;;5061489;28;20021;-77
2023/06/10 11:02:17;;;;;;;5.43;3.67;;;;;;;;;;5060480;28;20415;-77
2023/06/10 11:04:49;;;;;;;4.80;3.83;;;;;;;;;;5061917;28;20460;-77
2023/06/10 11:07:20;;;;;;;5.43;3.72;;;;;;;;;;5060566;28;20017;-78
2023/06/10 11:10:28;;;;;;;4.72;3.88;;;;;;;;;;5067670;28;20085;-78
2023/06/10 11:12:54;;;;;;;6.20;3.70;;;;;;;;;;5045281;28;20164;-78
2023/06/10 11:15:22;;;;;;;7.65;4.15;;;;;;;;;;5060631;28;20052;-78
2023/06/10 11:18:09;;;;;;;5.68;4.07;;;;;;;;;;5062263;28;20029;-77
2023/06/10 11:20:49;;;;;;;8.45;4.15;;;;;;;;;;5059360;28;20032;-78
2023/06/10 11:23:26;;;;;;;5.35;4.20;;;;;;;;;;5059969;28;20043;-78
2023/06/10 11:26:10;;;;;;;6.03;4.00;;;;;;;;;;5059722;28;20031;-77
2023/06/10 11:28:36;;;;;;;;;;;;;;;;;;5060412;28;20020;-77
2023/06/10 11:31:01;;;;;;;6.05;4.18;;;;;;;;;;5059949;28;19909;-77
2023/06/10 11:33:27;;;;;;;5.37;4.13;;;;;;;;;;5058627;28;20060;-78
2023/06/10 11:35:53;;;;;;;6.70;4.47;;;;;;;;;;5059111;28;20279;-77
2023/06/10 11:38:18;;;;;;;7.30;4.27;;;;;;;;;;5059501;28;20543;-77
2023/06/10 11:40:50;;;;;;;5.57;4.15;;;;;;;;;;5059406;28;20281;-78
2023/06/10 11:43:17;;;;;;;7.90;4.07;;;;;;;;;;5060074;28;20036;-77
2023/06/10 11:45:43;;;;;;;6.72;3.83;;;;;;;;;;5060584;28;20392;-77
2023/06/10 11:48:09;;;;;;;6.85;4.28;;;;;;;;;;5060053;28;20024;-78
2023/06/10 11:50:34;;;;;;;6.80;3.95;;;;;;;;;;5066315;28;20097;-78
2023/06/10 11:53:00;;;;;;;5.53;4.40;;;;;;;;;;5063367;28;20491;-78
2023/06/10 11:55:46;;;;;;;7.90;4.30;;;;;;;;;;5061665;28;20647;-77
2023/06/10 11:58:20;;;;;;;8.30;4.05;;;;;;;;;;5063055;28;20048;-79
2023/06/10 12:00:54;;;;;;;5.55;3.50;;;;;;;;;;5065879;28;20123;-79
2023/06/10 12:03:22;;;;;;;8.93;3.67;;;;;;;;;;5065947;28;20233;-79
2023/06/10 12:05:58;;;;;;;6.53;3.53;;;;;;;;;;5065652;28;20051;-78
2023/06/10 12:08:24;;;;;;;6.40;3.58;;;;;;;;;;5064878;28;20028;-78
2023/06/10 12:10:50;;;;;;;5.03;4.20;;;;;;;;;;5064898;28;20029;-78
2023/06/10 12:13:17;;;;;;;5.85;4.15;;;;;;;;;;5064883;28;20068;-78
2023/06/10 12:15:42;;;;;;;5.63;3.95;;;;;;;;;;5064841;28;20032;-77
2023/06/10 12:18:08;;;;;;;6.72;4.10;;;;;;;;;;5060575;28;20033;-78
2023/06/10 12:20:36;;;;;;;6.43;3.88;;;;;;;;;;5062241;28;20032;-77
2023/06/10 12:23:09;;;;;;;5.53;3.60;;;;;;;;;;5060902;28;20036;-77
2023/06/10 12:25:36;;;;;;;;;;;;;;;;;;5060216;28;20357;-77
2023/06/10 12:28:02;;;;;;;4.70;3.63;;;;;;;;;;5061348;28;19908;-78
2023/06/10 12:30:34;;;;;;;5.47;3.50;;;;;;;;;;5061295;28;20039;-78
2023/06/10 12:33:00;;;;;;;6.18;3.65;;;;;;;;;;5061485;28;20029;-77
2023/06/10 12:35:27;;;;;;;4.47;3.65;;;;;;;;;;5062984;28;20028;-77
2023/06/10 12:38:06;;;;;;;5.22;3.70;;;;;;;;;;5062643;28;20476;-77
2023/06/10 12:40:37;;;;;;;5.85;4.05;;;;;;;;;;5062813;28;20104;-77
2023/06/10 12:43:03;;;;;;;5.75;3.75;;;;;;;;;;5061120;28;20032;-78
2023/06/10 12:45:40;;;;;;;6.22;4.07;;;;;;;;;;5060829;28;20033;-77
2023/06/10 12:48:18;;;;;;;6.57;4.30;;;;;;;;;;5060429;28;20024;-78
2023/06/10 12:50:44;;;;;;;4.93;3.80;;;;;;;;;;5061479;28;20546;-77
2023/06/10 12:53:11;;;;;;;6.07;4.35;;;;;;;;;;5061508;28;20028;-77
2023/06/10 12:55:37;;;;;;;6.07;4.20;;;;;;;;;;5061606;28;20021;-78
2023/06/10 12:58:03;;;;;;;5.90;4.13;;;;;;;;;;5061354;28;20025;-78
2023/06/10 13:00:30;;;;;;;5.57;4.40;;;;;;;;;;5058903;28;20099;-77
2023/06/10 13:02:56;;;;;;;6.55;4.20;;;;;;;;;;5064415;28;20024;-79
2023/06/10 13:05:22;;;;;;;7.10;3.90;;;;;;;;;;5062199;28;20029;-77
2023/06/10 13:07:47;;;;;;;6.00;4.07;;;;;;;;;;5064991;28;20013;-80
2023/06/10 13:10:14;;;;;;;5.28;3.90;;;;;;;;;;5067169;28;20036;-77
2023/06/10 13:12:39;;;;;;;7.35;4.10;;;;;;;;;;5064642;28;20112;-79
2023/06/10 13:15:05;;;;;;;5.28;4.22;;;;;;;;;;5063589;28;20056;-79
2023/06/10 13:17:30;;;;;;;5.80;4.10;;;;;;;;;;5065171;28;20048;-79
2023/06/10 13:19:56;;;;;;;5.87;3.63;;;;;;;;;;5065936;28;20025;-78
2023/06/10 13:22:21;;;;;;;6.15;3.90;;;;;;;;;;5064329;28;20250;-79
2023/06/10 13:24:46;;;;;;;7.78;3.97;;;;;;;;;;5064828;28;20028;-78
2023/06/10 13:27:13;;;;;;;5.68;3.88;;;;;;;;;;5063054;28;20059;-79
2023/06/10 13:29:39;;;;;;;5.63;3.60;;;;;;;;;;5064591;28;20472;-78
2023/06/10 13:32:05;;;;;;;5.15;3.33;;;;;;;;;;5062408;28;20029;-79
2023/06/10 13:34:30;;;;;;;4.38;3.28;;;;;;;;;;5062741;28;20044;-78
2023/06/10 13:36:55;;;;;;;7.27;3.17;;;;;;;;;;5066157;28;20037;-79
2023/06/10 13:39:21;;;;;;;6.45;3.30;;;;;;;;;;5065126;28;20017;-79
2023/06/10 13:41:46;;;;;;;6.73;3.30;;;;;;;;;;5063789;28;20025;-80
2023/06/10 13:44:11;;;;;;;5.10;3.13;;;;;;;;;;5064759;28;20265;-79
2023/06/10 13:46:37;;;;;;;5.93;2.97;;;;;;;;;;5065271;28;20036;-78
2023/06/10 13:49:02;;;;;;;7.57;2.92;;;;;;;;;;5065245;28;20365;-79
2023/06/10 13:51:27;;;;;;;6.93;3.30;;;;;;;;;;5063746;28;20036;-80
2023/06/10 13:53:52;;;;;;;3.90;3.30;;;;;;;;;;5063632;28;20291;-78
2023/06/10 13:56:18;;;;;;;6.90;3.83;;;;;;;;;;5064979;28;20028;-78
2023/06/10 13:58:44;;;;;;;3.90;2.83;;;;;;;;;;5065241;28;20300;-80
2023/06/10 14:01:09;;;;;;;7.43;3.03;;;;;;;;;;5062805;28;20032;-78
2023/06/10 14:03:34;;;;;;;3.60;2.83;;;;;;;;;;5062141;28;20095;-81
2023/06/10 14:06:00;;;;;;;5.75;2.97;;;;;;;;;;5063333;28;20032;-78
2023/06/10 14:08:25;;;;;;;6.33;2.90;;;;;;;;;;5064422;28;20032;-79
2023/06/10 14:10:51;;;;;;;4.30;3.00;;;;;;;;;;5064254;28;20025;-80
2023/06/10 14:13:17;;;;;;;5.65;3.15;;;;;;;;;;5064111;28;20737;-79
2023/06/10 14:15:42;;;;;;;3.97;2.80;;;;;;;;;;5064413;28;20093;-79
2023/06/10 14:18:07;;;;;;;4.82;2.88;;;;;;;;;;5064685;28;20029;-80
2023/06/10 14:20:33;;;;;;;4.23;3.20;;;;;;;;;;5063374;28;20093;-80
2023/06/10 14:22:58;;;;;;;4.73;3.03;;;;;;;;;;5063560;28;20262;-79
2023/06/10 14:25:24;;;;;;;5.40;3.05;;;;;;;;;;5062407;28;20327;-79
2023/06/10 14:27:49;;;;;;;3.83;3.20;;;;;;;;;;5062317;28;20021;-79
2023/06/10 14:30:15;;;;;;;3.87;2.80;;;;;;;;;;5061845;28;20039;-79
2023/06/10 14:32:41;;;;;;;5.20;3.50;;;;;;;;;;5064104;28;20273;-79
2023/06/10 14:35:06;;;;;;;8.68;3.30;;;;;;;;;;5064203;28;20098;-79
2023/06/10 14:37:31;;;;;;;5.18;3.28;;;;;;;;;;5063244;28;20025;-79
2023/06/10 14:39:57;;;;;;;7.23;3.13;;;;;;;;;;5062161;28;20087;-78